sensor_id;sensor_type;location;lat;lon;timestamp;P1;durP1;ratioP1;P2;durP2;ratioP2
37389;SDS011;39679;49.000;8.390;2022-08-16T00:02:14;3.85;;;1.92;;
37389;SDS011;39679;49.000;8.390;2022-08-16T00:07:14;4.33;;;2.20;;
37389;SDS011;39679;49.000;8.390;2022-08-16T00:12:15;2.25;;;1.88;;
37389;SDS011;39679;49.000;8.390;2022-08-16T00:17:15;5.15;;;2.08;;
37389;SDS011;39679;49.000;8.390;2022-08-16T00:22:15;4.05;;;1.92;;
37389;SDS011;39679;49.000;8.390;2022-08-16T00:27:16;3.42;;;1.90;;
37389;SDS011;39679;49.000;8.390;2022-08-16T00:32:16;6.50;;;2.10;;
37389;SDS011;39679;49.000;8.390;2022-08-16T00:37:17;3.30;;;1.90;;
37389;SDS011;39679;49.000;8.390;2022-08-16T00:42:18;1.92;;;1.70;;
37389;SDS011;39679;49.000;8.390;2022-08-16T00:47:19;2.03;;;1.65;;
37389;SDS011;39679;49.000;8.390;2022-08-16T00:52:22;2.65;;;1.73;;
37389;SDS011;39679;49.000;8.390;2022-08-16T00:57:24;2.33;;;1.67;;
37389;SDS011;39679;49.000;8.390;2022-08-16T01:02:25;1.65;;;1.48;;
37389;SDS011;39679;49.000;8.390;2022-08-16T01:07:27;2.90;;;1.70;;
37389;SDS011;39679;49.000;8.390;2022-08-16T01:12:28;2.55;;;1.80;;
37389;SDS011;39679;49.000;8.390;2022-08-16T01:17:28;2.22;;;1.77;;
37389;SDS011;39679;49.000;8.390;2022-08-16T01:22:32;1.60;;;1.50;;
37389;SDS011;39679;49.000;8.390;2022-08-16T01:27:54;1.60;;;1.50;;
37389;SDS011;39679;49.000;8.390;2022-08-16T01:32:58;2.35;;;1.73;;
37389;SDS011;39679;49.000;8.390;2022-08-16T01:43:25;2.40;;;1.60;;
37389;SDS011;39679;49.000;8.390;2022-08-16T01:48:26;2.38;;;1.77;;
37389;SDS011;39679;49.000;8.390;2022-08-16T01:53:29;3.20;;;1.70;;
37389;SDS011;39679;49.000;8.390;2022-08-16T01:58:29;1.85;;;1.60;;
37389;SDS011;39679;49.000;8.390;2022-08-16T02:03:30;1.37;;;1.27;;
37389;SDS011;39679;49.000;8.390;2022-08-16T02:08:30;1.73;;;1.43;;
37389;SDS011;39679;49.000;8.390;2022-08-16T02:13:31;2.10;;;1.40;;
37389;SDS011;39679;49.000;8.390;2022-08-16T02:18:31;2.17;;;1.48;;
37389;SDS011;39679;49.000;8.390;2022-08-16T02:23:32;2.10;;;1.67;;
37389;SDS011;39679;49.000;8.390;2022-08-16T02:28:35;3.00;;;1.63;;
37389;SDS011;39679;49.000;8.390;2022-08-16T02:33:35;2.85;;;1.40;;
37389;SDS011;39679;49.000;8.390;2022-08-16T02:38:36;1.42;;;1.33;;
37389;SDS011;39679;49.000;8.390;2022-08-16T02:43:36;1.43;;;1.30;;
37389;SDS011;39679;49.000;8.390;2022-08-16T02:48:37;2.08;;;1.45;;
37389;SDS011;39679;49.000;8.390;2022-08-16T02:53:41;1.98;;;1.55;;
37389;SDS011;39679;49.000;8.390;2022-08-16T02:58:44;1.92;;;1.60;;
37389;SDS011;39679;49.000;8.390;2022-08-16T03:03:46;1.50;;;1.33;;
37389;SDS011;39679;49.000;8.390;2022-08-16T03:08:47;2.60;;;1.60;;
37389;SDS011;39679;49.000;8.390;2022-08-16T03:13:50;1.30;;;1.20;;
37389;SDS011;39679;49.000;8.390;2022-08-16T03:18:52;1.50;;;1.30;;
37389;SDS011;39679;49.000;8.390;2022-08-16T03:23:53;2.28;;;1.45;;
37389;SDS011;39679;49.000;8.390;2022-08-16T03:28:53;1.57;;;1.23;;
37389;SDS011;39679;49.000;8.390;2022-08-16T03:33:54;2.17;;;1.50;;
37389;SDS011;39679;49.000;8.390;2022-08-16T03:38:54;1.30;;;1.20;;
37389;SDS011;39679;49.000;8.390;2022-08-16T03:43:54;1.48;;;1.35;;
37389;SDS011;39679;49.000;8.390;2022-08-16T03:48:55;2.25;;;1.38;;
37389;SDS011;39679;49.000;8.390;2022-08-16T03:53:55;1.93;;;1.30;;
37389;SDS011;39679;49.000;8.390;2022-08-16T03:58:56;1.70;;;1.50;;
37389;SDS011;39679;49.000;8.390;2022-08-16T04:03:56;1.33;;;1.20;;
37389;SDS011;39679;49.000;8.390;2022-08-16T04:08:56;1.73;;;1.35;;
37389;SDS011;39679;49.000;8.390;2022-08-16T04:13:57;1.60;;;1.50;;
37389;SDS011;39679;49.000;8.390;2022-08-16T04:18:57;1.97;;;1.50;;
37389;SDS011;39679;49.000;8.390;2022-08-16T04:23:58;1.80;;;1.40;;
37389;SDS011;39679;49.000;8.390;2022-08-16T04:28:59;2.08;;;1.23;;
37389;SDS011;39679;49.000;8.390;2022-08-16T04:34:00;1.73;;;1.30;;
37389;SDS011;39679;49.000;8.390;2022-08-16T04:39:01;1.40;;;1.30;;
37389;SDS011;39679;49.000;8.390;2022-08-16T04:44:01;1.45;;;1.35;;
37389;SDS011;39679;49.000;8.390;2022-08-16T04:49:02;1.85;;;1.33;;
37389;SDS011;39679;49.000;8.390;2022-08-16T04:54:02;1.33;;;1.23;;
37389;SDS011;39679;49.000;8.390;2022-08-16T04:59:05;1.30;;;1.20;;
37389;SDS011;39679;49.000;8.390;2022-08-16T05:04:06;1.65;;;1.30;;
37389;SDS011;39679;49.000;8.390;2022-08-16T05:09:06;1.55;;;1.42;;
37389;SDS011;39679;49.000;8.390;2022-08-16T05:14:07;2.57;;;1.30;;
37389;SDS011;39679;49.000;8.390;2022-08-16T05:19:07;1.47;;;1.37;;
37389;SDS011;39679;49.000;8.390;2022-08-16T05:24:08;1.77;;;1.58;;
37389;SDS011;39679;49.000;8.390;2022-08-16T05:29:08;1.50;;;1.40;;
37389;SDS011;39679;49.000;8.390;2022-08-16T05:34:08;2.27;;;1.50;;
37389;SDS011;39679;49.000;8.390;2022-08-16T05:39:09;1.40;;;1.30;;
37389;SDS011;39679;49.000;8.390;2022-08-16T05:44:09;1.50;;;1.40;;
37389;SDS011;39679;49.000;8.390;2022-08-16T05:49:10;3.10;;;1.60;;
37389;SDS011;39679;49.000;8.390;2022-08-16T05:54:12;10.13;;;3.40;;
37389;SDS011;39679;49.000;8.390;2022-08-16T05:59:16;7.18;;;2.83;;
37389;SDS011;39679;49.000;8.390;2022-08-16T06:04:17;13.45;;;3.58;;
37389;SDS011;39679;49.000;8.390;2022-08-16T06:09:19;9.15;;;3.28;;
37389;SDS011;39679;49.000;8.390;2022-08-16T06:14:19;13.83;;;3.90;;
37389;SDS011;39679;49.000;8.390;2022-08-16T06:19:19;19.15;;;4.97;;
37389;SDS011;39679;49.000;8.390;2022-08-16T06:24:20;21.20;;;6.47;;
37389;SDS011;39679;49.000;8.390;2022-08-16T06:29:20;26.80;;;6.88;;
37389;SDS011;39679;49.000;8.390;2022-08-16T06:34:20;18.30;;;5.95;;
37389;SDS011;39679;49.000;8.390;2022-08-16T06:39:21;21.45;;;5.80;;
37389;SDS011;39679;49.000;8.390;2022-08-16T06:44:21;17.10;;;5.30;;
37389;SDS011;39679;49.000;8.390;2022-08-16T06:49:22;13.73;;;4.82;;
37389;SDS011;39679;49.000;8.390;2022-08-16T06:54:22;11.35;;;4.00;;
37389;SDS011;39679;49.000;8.390;2022-08-16T06:59:23;8.47;;;3.77;;
37389;SDS011;39679;49.000;8.390;2022-08-16T07:04:23;11.07;;;4.00;;
37389;SDS011;39679;49.000;8.390;2022-08-16T07:09:24;11.23;;;3.70;;
37389;SDS011;39679;49.000;8.390;2022-08-16T07:14:24;11.13;;;4.43;;
37389;SDS011;39679;49.000;8.390;2022-08-16T07:19:26;8.48;;;3.50;;
37389;SDS011;39679;49.000;8.390;2022-08-16T07:24:29;4.93;;;3.15;;
37389;SDS011;39679;49.000;8.390;2022-08-16T07:29:30;5.10;;;3.00;;
37389;SDS011;39679;49.000;8.390;2022-08-16T07:34:31;5.95;;;2.80;;
37389;SDS011;39679;49.000;8.390;2022-08-16T07:39:31;6.72;;;3.17;;
37389;SDS011;39679;49.000;8.390;2022-08-16T07:44:32;4.03;;;2.75;;
37389;SDS011;39679;49.000;8.390;2022-08-16T07:49:32;4.20;;;2.90;;
37389;SDS011;39679;49.000;8.390;2022-08-16T07:54:32;10.10;;;2.97;;
37389;SDS011;39679;49.000;8.390;2022-08-16T07:59:33;5.80;;;3.65;;
37389;SDS011;39679;49.000;8.390;2022-08-16T08:04:33;6.13;;;3.35;;
37389;SDS011;39679;49.000;8.390;2022-08-16T08:09:33;3.95;;;2.92;;
37389;SDS011;39679;49.000;8.390;2022-08-16T08:14:34;4.95;;;2.78;;
37389;SDS011;39679;49.000;8.390;2022-08-16T08:19:34;4.38;;;3.03;;
37389;SDS011;39679;49.000;8.390;2022-08-16T08:24:35;7.28;;;3.15;;
37389;SDS011;39679;49.000;8.390;2022-08-16T08:29:36;5.25;;;2.83;;
37389;SDS011;39679;49.000;8.390;2022-08-16T08:34:36;4.53;;;3.15;;
37389;SDS011;39679;49.000;8.390;2022-08-16T08:39:36;6.00;;;3.10;;
37389;SDS011;39679;49.000;8.390;2022-08-16T08:44:37;4.37;;;3.03;;
37389;SDS011;39679;49.000;8.390;2022-08-16T08:49:37;4.67;;;2.97;;
37389;SDS011;39679;49.000;8.390;2022-08-16T08:54:38;5.85;;;3.10;;
37389;SDS011;39679;49.000;8.390;2022-08-16T08:59:38;3.83;;;2.87;;
37389;SDS011;39679;49.000;8.390;2022-08-16T09:04:39;4.07;;;3.00;;
37389;SDS011;39679;49.000;8.390;2022-08-16T09:09:39;5.55;;;3.03;;
37389;SDS011;39679;49.000;8.390;2022-08-16T09:14:39;5.43;;;3.17;;
37389;SDS011;39679;49.000;8.390;2022-08-16T09:19:40;4.90;;;2.87;;
37389;SDS011;39679;49.000;8.390;2022-08-16T09:24:40;6.25;;;3.55;;
37389;SDS011;39679;49.000;8.390;2022-08-16T09:29:41;4.60;;;3.33;;
37389;SDS011;39679;49.000;8.390;2022-08-16T09:34:41;3.65;;;2.78;;
37389;SDS011;39679;49.000;8.390;2022-08-16T09:39:42;5.97;;;3.23;;
37389;SDS011;39679;49.000;8.390;2022-08-16T09:44:42;3.70;;;2.75;;
37389;SDS011;39679;49.000;8.390;2022-08-16T09:49:43;5.03;;;2.97;;
37389;SDS011;39679;49.000;8.390;2022-08-16T09:54:43;3.55;;;3.13;;
37389;SDS011;39679;49.000;8.390;2022-08-16T09:59:43;4.32;;;3.00;;
37389;SDS011;39679;49.000;8.390;2022-08-16T10:04:44;4.70;;;2.80;;
37389;SDS011;39679;49.000;8.390;2022-08-16T10:09:44;4.68;;;3.20;;
37389;SDS011;39679;49.000;8.390;2022-08-16T10:14:44;5.07;;;3.08;;
37389;SDS011;39679;49.000;8.390;2022-08-16T10:19:45;4.07;;;3.17;;
37389;SDS011;39679;49.000;8.390;2022-08-16T10:24:45;3.97;;;2.83;;
37389;SDS011;39679;49.000;8.390;2022-08-16T10:29:46;4.35;;;3.03;;
37389;SDS011;39679;49.000;8.390;2022-08-16T10:34:46;3.40;;;3.07;;
37389;SDS011;39679;49.000;8.390;2022-08-16T10:39:46;4.43;;;2.60;;
37389;SDS011;39679;49.000;8.390;2022-08-16T10:44:47;3.97;;;2.80;;
37389;SDS011;39679;49.000;8.390;2022-08-16T10:49:48;3.40;;;2.58;;
37389;SDS011;39679;49.000;8.390;2022-08-16T10:54:48;3.53;;;2.88;;
37389;SDS011;39679;49.000;8.390;2022-08-16T10:59:48;2.97;;;2.60;;
37389;SDS011;39679;49.000;8.390;2022-08-16T11:04:49;3.13;;;2.67;;
37389;SDS011;39679;49.000;8.390;2022-08-16T11:09:49;4.78;;;2.80;;
37389;SDS011;39679;49.000;8.390;2022-08-16T11:14:49;4.40;;;2.83;;
37389;SDS011;39679;49.000;8.390;2022-08-16T11:19:50;2.92;;;2.42;;
37389;SDS011;39679;49.000;8.390;2022-08-16T11:24:50;4.30;;;2.97;;
37389;SDS011;39679;49.000;8.390;2022-08-16T11:29:52;3.10;;;2.63;;
37389;SDS011;39679;49.000;8.390;2022-08-16T11:34:53;3.42;;;2.90;;
37389;SDS011;39679;49.000;8.390;2022-08-16T11:39:54;3.33;;;2.83;;
37389;SDS011;39679;49.000;8.390;2022-08-16T11:44:54;2.80;;;2.50;;
37389;SDS011;39679;49.000;8.390;2022-08-16T11:49:54;3.28;;;2.72;;
37389;SDS011;39679;49.000;8.390;2022-08-16T11:54:55;4.57;;;3.05;;
37389;SDS011;39679;49.000;8.390;2022-08-16T11:59:55;3.20;;;2.30;;
37389;SDS011;39679;49.000;8.390;2022-08-16T12:04:56;3.47;;;2.50;;
37389;SDS011;39679;49.000;8.390;2022-08-16T12:09:56;2.50;;;2.30;;
37389;SDS011;39679;49.000;8.390;2022-08-16T12:14:56;3.03;;;2.35;;
37389;SDS011;39679;49.000;8.390;2022-08-16T12:19:57;4.72;;;2.80;;
37389;SDS011;39679;49.000;8.390;2022-08-16T12:24:58;3.55;;;2.65;;
37389;SDS011;39679;49.000;8.390;2022-08-16T12:29:58;4.47;;;2.67;;
37389;SDS011;39679;49.000;8.390;2022-08-16T12:34:58;3.57;;;3.00;;
37389;SDS011;39679;49.000;8.390;2022-08-16T12:40:00;6.28;;;3.20;;
37389;SDS011;39679;49.000;8.390;2022-08-16T12:45:01;2.72;;;2.53;;
37389;SDS011;39679;49.000;8.390;2022-08-16T12:50:05;3.17;;;2.47;;
37389;SDS011;39679;49.000;8.390;2022-08-16T12:55:06;2.85;;;2.30;;
37389;SDS011;39679;49.000;8.390;2022-08-16T13:00:09;2.50;;;2.30;;
37389;SDS011;39679;49.000;8.390;2022-08-16T13:05:12;2.78;;;2.30;;
37389;SDS011;39679;49.000;8.390;2022-08-16T13:10:13;2.88;;;2.58;;
37389;SDS011;39679;49.000;8.390;2022-08-16T13:15:15;3.20;;;2.50;;
37389;SDS011;39679;49.000;8.390;2022-08-16T13:20:19;2.45;;;2.17;;
37389;SDS011;39679;49.000;8.390;2022-08-16T13:25:23;2.90;;;2.28;;
37389;SDS011;39679;49.000;8.390;2022-08-16T13:30:25;2.20;;;2.00;;
37389;SDS011;39679;49.000;8.390;2022-08-16T13:35:27;2.55;;;2.35;;
37389;SDS011;39679;49.000;8.390;2022-08-16T13:40:27;3.22;;;2.40;;
37389;SDS011;39679;49.000;8.390;2022-08-16T13:45:28;2.95;;;2.42;;
37389;SDS011;39679;49.000;8.390;2022-08-16T13:50:28;2.42;;;2.20;;
37389;SDS011;39679;49.000;8.390;2022-08-16T13:55:28;2.17;;;1.98;;
37389;SDS011;39679;49.000;8.390;2022-08-16T14:00:29;3.10;;;2.47;;
37389;SDS011;39679;49.000;8.390;2022-08-16T14:05:29;2.40;;;2.20;;
37389;SDS011;39679;49.000;8.390;2022-08-16T14:10:30;2.87;;;1.83;;
37389;SDS011;39679;49.000;8.390;2022-08-16T14:15:30;4.37;;;2.07;;
37389;SDS011;39679;49.000;8.390;2022-08-16T14:20:30;2.53;;;2.03;;
37389;SDS011;39679;49.000;8.390;2022-08-16T14:25:31;2.30;;;1.90;;
37389;SDS011;39679;49.000;8.390;2022-08-16T14:30:31;2.33;;;2.00;;
37389;SDS011;39679;49.000;8.390;2022-08-16T14:35:32;3.15;;;2.35;;
37389;SDS011;39679;49.000;8.390;2022-08-16T14:40:33;2.88;;;2.40;;
37389;SDS011;39679;49.000;8.390;2022-08-16T14:45:33;2.97;;;2.15;;
37389;SDS011;39679;49.000;8.390;2022-08-16T14:50:34;3.25;;;2.28;;
37389;SDS011;39679;49.000;8.390;2022-08-16T14:55:35;3.65;;;2.30;;
37389;SDS011;39679;49.000;8.390;2022-08-16T15:00:37;2.58;;;2.00;;
37389;SDS011;39679;49.000;8.390;2022-08-16T15:05:38;2.53;;;1.87;;
37389;SDS011;39679;49.000;8.390;2022-08-16T15:10:40;2.65;;;2.00;;
37389;SDS011;39679;49.000;8.390;2022-08-16T15:15:40;2.57;;;2.00;;
37389;SDS011;39679;49.000;8.390;2022-08-16T15:20:41;3.95;;;2.30;;
37389;SDS011;39679;49.000;8.390;2022-08-16T15:25:42;2.38;;;2.15;;
37389;SDS011;39679;49.000;8.390;2022-08-16T15:30:44;4.40;;;2.13;;
37389;SDS011;39679;49.000;8.390;2022-08-16T15:35:46;3.47;;;2.10;;
37389;SDS011;39679;49.000;8.390;2022-08-16T15:45:50;2.78;;;2.08;;
37389;SDS011;39679;49.000;8.390;2022-08-16T15:50:50;2.53;;;2.10;;
37389;SDS011;39679;49.000;8.390;2022-08-16T15:55:51;2.43;;;2.17;;
37389;SDS011;39679;49.000;8.390;2022-08-16T16:00:51;2.30;;;2.10;;
37389;SDS011;39679;49.000;8.390;2022-08-16T16:05:53;3.45;;;2.20;;
37389;SDS011;39679;49.000;8.390;2022-08-16T16:10:57;3.22;;;2.00;;
37389;SDS011;39679;49.000;8.390;2022-08-16T16:16:01;3.35;;;2.20;;
37389;SDS011;39679;49.000;8.390;2022-08-16T16:21:03;2.47;;;2.05;;
37389;SDS011;39679;49.000;8.390;2022-08-16T16:26:06;3.28;;;2.15;;
37389;SDS011;39679;49.000;8.390;2022-08-16T16:31:08;2.25;;;1.90;;
37389;SDS011;39679;49.000;8.390;2022-08-16T16:36:11;2.95;;;2.08;;
37389;SDS011;39679;49.000;8.390;2022-08-16T16:41:16;2.95;;;2.35;;
37389;SDS011;39679;49.000;8.390;2022-08-16T16:51:20;3.10;;;2.08;;
37389;SDS011;39679;49.000;8.390;2022-08-16T16:56:21;2.40;;;1.80;;
37389;SDS011;39679;49.000;8.390;2022-08-16T17:01:22;2.93;;;2.23;;
37389;SDS011;39679;49.000;8.390;2022-08-16T17:06:24;2.38;;;2.17;;
37389;SDS011;39679;49.000;8.390;2022-08-16T17:11:25;2.78;;;2.13;;
37389;SDS011;39679;49.000;8.390;2022-08-16T17:16:25;2.97;;;2.45;;
37389;SDS011;39679;49.000;8.390;2022-08-16T17:21:26;2.80;;;2.00;;
37389;SDS011;39679;49.000;8.390;2022-08-16T17:26:27;3.58;;;2.03;;
37389;SDS011;39679;49.000;8.390;2022-08-16T17:31:28;4.22;;;2.65;;
37389;SDS011;39679;49.000;8.390;2022-08-16T17:36:29;2.75;;;2.25;;
37389;SDS011;39679;49.000;8.390;2022-08-16T17:41:29;4.38;;;2.20;;
37389;SDS011;39679;49.000;8.390;2022-08-16T17:46:29;6.15;;;2.67;;
37389;SDS011;39679;49.000;8.390;2022-08-16T17:51:30;4.15;;;2.47;;
37389;SDS011;39679;49.000;8.390;2022-08-16T17:56:30;3.95;;;2.63;;
37389;SDS011;39679;49.000;8.390;2022-08-16T18:01:31;2.60;;;2.15;;
37389;SDS011;39679;49.000;8.390;2022-08-16T18:06:31;4.40;;;2.60;;
37389;SDS011;39679;49.000;8.390;2022-08-16T18:11:32;4.53;;;2.58;;
37389;SDS011;39679;49.000;8.390;2022-08-16T18:16:33;5.18;;;2.70;;
37389;SDS011;39679;49.000;8.390;2022-08-16T18:21:34;5.55;;;2.40;;
37389;SDS011;39679;49.000;8.390;2022-08-16T18:26:34;4.07;;;2.83;;
37389;SDS011;39679;49.000;8.390;2022-08-16T18:31:36;6.43;;;2.80;;
37389;SDS011;39679;49.000;8.390;2022-08-16T18:36:37;8.82;;;3.65;;
37389;SDS011;39679;49.000;8.390;2022-08-16T18:41:37;5.50;;;2.77;;
37389;SDS011;39679;49.000;8.390;2022-08-16T18:46:39;17.33;;;3.60;;
37389;SDS011;39679;49.000;8.390;2022-08-16T18:51:41;5.47;;;3.30;;
37389;SDS011;39679;49.000;8.390;2022-08-16T18:56:42;8.02;;;3.38;;
37389;SDS011;39679;49.000;8.390;2022-08-16T19:01:42;8.37;;;3.43;;
37389;SDS011;39679;49.000;8.390;2022-08-16T19:06:42;10.73;;;3.85;;
37389;SDS011;39679;49.000;8.390;2022-08-16T19:11:43;11.13;;;4.43;;
37389;SDS011;39679;49.000;8.390;2022-08-16T19:16:43;12.17;;;4.63;;
37389;SDS011;39679;49.000;8.390;2022-08-16T19:21:43;9.70;;;4.57;;
37389;SDS011;39679;49.000;8.390;2022-08-16T19:26:44;10.23;;;4.87;;
37389;SDS011;39679;49.000;8.390;2022-08-16T19:31:44;11.70;;;5.03;;
37389;SDS011;39679;49.000;8.390;2022-08-16T19:36:44;11.75;;;5.10;;
37389;SDS011;39679;49.000;8.390;2022-08-16T19:41:46;8.93;;;4.77;;
37389;SDS011;39679;49.000;8.390;2022-08-16T19:46:48;8.82;;;5.32;;
37389;SDS011;39679;49.000;8.390;2022-08-16T19:51:49;7.07;;;4.43;;
37389;SDS011;39679;49.000;8.390;2022-08-16T19:56:49;10.97;;;4.63;;
37389;SDS011;39679;49.000;8.390;2022-08-16T20:01:50;6.77;;;3.97;;
37389;SDS011;39679;49.000;8.390;2022-08-16T20:06:51;6.03;;;4.20;;
37389;SDS011;39679;49.000;8.390;2022-08-16T20:11:52;12.15;;;4.60;;
37389;SDS011;39679;49.000;8.390;2022-08-16T20:16:54;10.90;;;3.97;;
37389;SDS011;39679;49.000;8.390;2022-08-16T20:21:57;12.27;;;4.20;;
37389;SDS011;39679;49.000;8.390;2022-08-16T20:26:59;6.65;;;4.20;;
37389;SDS011;39679;49.000;8.390;2022-08-16T20:32:00;10.55;;;3.53;;
37389;SDS011;39679;49.000;8.390;2022-08-16T20:37:01;12.35;;;4.10;;
37389;SDS011;39679;49.000;8.390;2022-08-16T20:42:01;7.28;;;4.20;;
37389;SDS011;39679;49.000;8.390;2022-08-16T20:47:02;11.75;;;4.82;;
37389;SDS011;39679;49.000;8.390;2022-08-16T20:52:06;6.45;;;4.00;;
37389;SDS011;39679;49.000;8.390;2022-08-16T20:57:09;6.85;;;3.80;;
37389;SDS011;39679;49.000;8.390;2022-08-16T21:02:11;7.13;;;3.92;;
37389;SDS011;39679;49.000;8.390;2022-08-16T21:07:20;7.70;;;3.97;;
37389;SDS011;39679;49.000;8.390;2022-08-16T21:12:20;7.32;;;4.18;;
37389;SDS011;39679;49.000;8.390;2022-08-16T21:17:21;9.38;;;4.55;;
37389;SDS011;39679;49.000;8.390;2022-08-16T21:22:21;8.20;;;3.97;;
37389;SDS011;39679;49.000;8.390;2022-08-16T21:27:22;7.47;;;3.88;;
37389;SDS011;39679;49.000;8.390;2022-08-16T21:32:23;7.03;;;3.73;;
37389;SDS011;39679;49.000;8.390;2022-08-16T21:37:24;5.95;;;3.88;;
37389;SDS011;39679;49.000;8.390;2022-08-16T21:42:24;8.30;;;4.13;;
37389;SDS011;39679;49.000;8.390;2022-08-16T21:47:24;4.57;;;3.43;;
37389;SDS011;39679;49.000;8.390;2022-08-16T21:52:25;5.22;;;3.80;;
37389;SDS011;39679;49.000;8.390;2022-08-16T21:57:26;5.28;;;3.33;;
37389;SDS011;39679;49.000;8.390;2022-08-16T22:02:26;6.20;;;3.67;;
37389;SDS011;39679;49.000;8.390;2022-08-16T22:07:26;8.30;;;3.80;;
37389;SDS011;39679;49.000;8.390;2022-08-16T22:12:27;11.20;;;4.38;;
37389;SDS011;39679;49.000;8.390;2022-08-16T22:17:27;4.30;;;3.45;;
37389;SDS011;39679;49.000;8.390;2022-08-16T22:22:28;4.73;;;3.30;;
37389;SDS011;39679;49.000;8.390;2022-08-16T22:27:29;5.80;;;3.63;;
37389;SDS011;39679;49.000;8.390;2022-08-16T22:32:35;5.20;;;3.30;;
37389;SDS011;39679;49.000;8.390;2022-08-16T22:37:36;5.55;;;3.60;;
37389;SDS011;39679;49.000;8.390;2022-08-16T22:42:44;4.97;;;3.30;;
37389;SDS011;39679;49.000;8.390;2022-08-16T22:47:46;8.23;;;3.63;;
37389;SDS011;39679;49.000;8.390;2022-08-16T22:52:48;6.72;;;3.03;;
37389;SDS011;39679;49.000;8.390;2022-08-16T22:57:49;6.47;;;3.13;;
37389;SDS011;39679;49.000;8.390;2022-08-16T23:03:01;5.90;;;3.30;;
37389;SDS011;39679;49.000;8.390;2022-08-16T23:08:05;4.15;;;3.17;;
37389;SDS011;39679;49.000;8.390;2022-08-16T23:13:07;6.95;;;3.53;;
37389;SDS011;39679;49.000;8.390;2022-08-16T23:18:07;4.05;;;3.30;;
37389;SDS011;39679;49.000;8.390;2022-08-16T23:23:09;3.60;;;3.00;;
37389;SDS011;39679;49.000;8.390;2022-08-16T23:28:10;4.78;;;2.90;;
37389;SDS011;39679;49.000;8.390;2022-08-16T23:33:12;5.28;;;3.30;;
37389;SDS011;39679;49.000;8.390;2022-08-16T23:38:13;6.97;;;3.35;;
37389;SDS011;39679;49.000;8.390;2022-08-16T23:43:15;5.65;;;3.10;;
37389;SDS011;39679;49.000;8.390;2022-08-16T23:48:19;3.90;;;3.08;;
37389;SDS011;39679;49.000;8.390;2022-08-16T23:53:26;4.50;;;2.92;;
